sensor_id;sensor_type;location;lat;lon;timestamp;P1;durP1;ratioP1;P2;durP2;ratioP2
13230;SDS011;6681;53.254;10.398;2023-01-13T00:01:22;0.90;;;0.90;;
13230;SDS011;6681;53.254;10.398;2023-01-13T00:03:49;2.67;;;1.27;;
13230;SDS011;6681;53.254;10.398;2023-01-13T00:06:15;3.40;;;1.00;;
13230;SDS011;6681;53.254;10.398;2023-01-13T00:08:49;1.03;;;1.03;;
13230;SDS011;6681;53.254;10.398;2023-01-13T00:11:16;0.87;;;0.77;;
13230;SDS011;6681;53.254;10.398;2023-01-13T00:13:43;1.97;;;1.27;;
13230;SDS011;6681;53.254;10.398;2023-01-13T00:16:09;1.07;;;0.73;;
13230;SDS011;6681;53.254;10.398;2023-01-13T00:18:37;3.13;;;1.20;;
13230;SDS011;6681;53.254;10.398;2023-01-13T00:21:04;3.73;;;1.60;;
13230;SDS011;6681;53.254;10.398;2023-01-13T00:23:40;1.30;;;1.20;;
13230;SDS011;6681;53.254;10.398;2023-01-13T00:26:08;1.40;;;1.20;;
13230;SDS011;6681;53.254;10.398;2023-01-13T00:28:36;3.53;;;2.47;;
13230;SDS011;6681;53.254;10.398;2023-01-13T00:31:09;3.20;;;1.87;;
13230;SDS011;6681;53.254;10.398;2023-01-13T00:33:40;1.33;;;1.23;;
13230;SDS011;6681;53.254;10.398;2023-01-13T00:36:07;2.30;;;1.10;;
13230;SDS011;6681;53.254;10.398;2023-01-13T00:38:36;3.67;;;1.70;;
13230;SDS011;6681;53.254;10.398;2023-01-13T00:43:30;2.47;;;2.00;;
13230;SDS011;6681;53.254;10.398;2023-01-13T00:45:57;2.23;;;1.50;;
13230;SDS011;6681;53.254;10.398;2023-01-13T00:48:23;1.17;;;1.17;;
13230;SDS011;6681;53.254;10.398;2023-01-13T00:50:57;1.70;;;1.50;;
13230;SDS011;6681;53.254;10.398;2023-01-13T00:53:37;1.80;;;1.17;;
13230;SDS011;6681;53.254;10.398;2023-01-13T00:56:17;1.47;;;1.37;;
13230;SDS011;6681;53.254;10.398;2023-01-13T00:58:48;1.10;;;1.10;;
13230;SDS011;6681;53.254;10.398;2023-01-13T01:01:16;1.73;;;1.63;;
13230;SDS011;6681;53.254;10.398;2023-01-13T01:03:45;2.30;;;1.10;;
13230;SDS011;6681;53.254;10.398;2023-01-13T01:06:19;1.40;;;0.97;;
13230;SDS011;6681;53.254;10.398;2023-01-13T01:08:47;1.43;;;1.00;;
13230;SDS011;6681;53.254;10.398;2023-01-13T01:11:16;0.60;;;0.30;;
13230;SDS011;6681;53.254;10.398;2023-01-13T01:13:44;0.83;;;0.60;;
13230;SDS011;6681;53.254;10.398;2023-01-13T01:16:11;2.43;;;1.33;;
13230;SDS011;6681;53.254;10.398;2023-01-13T01:18:39;0.80;;;0.43;;
13230;SDS011;6681;53.254;10.398;2023-01-13T01:21:07;0.87;;;0.70;;
13230;SDS011;6681;53.254;10.398;2023-01-13T01:23:33;2.97;;;0.70;;
13230;SDS011;6681;53.254;10.398;2023-01-13T01:26:04;0.97;;;0.60;;
13230;SDS011;6681;53.254;10.398;2023-01-13T01:28:41;0.87;;;0.47;;
13230;SDS011;6681;53.254;10.398;2023-01-13T01:31:08;1.57;;;1.00;;
13230;SDS011;6681;53.254;10.398;2023-01-13T01:33:36;1.90;;;0.67;;
13230;SDS011;6681;53.254;10.398;2023-01-13T01:36:02;1.93;;;0.50;;
13230;SDS011;6681;53.254;10.398;2023-01-13T01:38:29;1.97;;;0.83;;
13230;SDS011;6681;53.254;10.398;2023-01-13T01:40:54;1.40;;;0.60;;
13230;SDS011;6681;53.254;10.398;2023-01-13T01:43:21;3.90;;;0.50;;
13230;SDS011;6681;53.254;10.398;2023-01-13T01:46:06;1.57;;;0.70;;
13230;SDS011;6681;53.254;10.398;2023-01-13T01:48:33;0.50;;;0.30;;
13230;SDS011;6681;53.254;10.398;2023-01-13T01:51:06;4.67;;;0.93;;
13230;SDS011;6681;53.254;10.398;2023-01-13T01:53:35;5.13;;;0.50;;
13230;SDS011;6681;53.254;10.398;2023-01-13T01:56:01;3.13;;;0.40;;
13230;SDS011;6681;53.254;10.398;2023-01-13T01:58:32;2.97;;;0.53;;
13230;SDS011;6681;53.254;10.398;2023-01-13T02:01:02;3.97;;;0.80;;
13230;SDS011;6681;53.254;10.398;2023-01-13T02:03:28;3.20;;;0.70;;
13230;SDS011;6681;53.254;10.398;2023-01-13T02:05:54;3.10;;;0.40;;
13230;SDS011;6681;53.254;10.398;2023-01-13T02:08:20;5.87;;;1.00;;
13230;SDS011;6681;53.254;10.398;2023-01-13T02:10:47;1.77;;;0.63;;
13230;SDS011;6681;53.254;10.398;2023-01-13T02:13:17;6.57;;;0.70;;
13230;SDS011;6681;53.254;10.398;2023-01-13T02:15:49;6.80;;;0.73;;
13230;SDS011;6681;53.254;10.398;2023-01-13T02:18:24;3.07;;;0.73;;
13230;SDS011;6681;53.254;10.398;2023-01-13T02:23:41;6.90;;;2.00;;
13230;SDS011;6681;53.254;10.398;2023-01-13T02:26:53;6.63;;;1.03;;
13230;SDS011;6681;53.254;10.398;2023-01-13T02:32:55;4.43;;;1.10;;
13230;SDS011;6681;53.254;10.398;2023-01-13T02:38:20;4.73;;;1.37;;
13230;SDS011;6681;53.254;10.398;2023-01-13T02:41:09;6.53;;;1.70;;
13230;SDS011;6681;53.254;10.398;2023-01-13T02:44:04;13.30;;;1.73;;
13230;SDS011;6681;53.254;10.398;2023-01-13T02:46:42;8.10;;;1.80;;
13230;SDS011;6681;53.254;10.398;2023-01-13T02:49:17;4.80;;;1.67;;
13230;SDS011;6681;53.254;10.398;2023-01-13T02:51:59;6.33;;;3.37;;
13230;SDS011;6681;53.254;10.398;2023-01-13T02:54:35;6.93;;;1.70;;
13230;SDS011;6681;53.254;10.398;2023-01-13T02:57:06;4.70;;;1.33;;
13230;SDS011;6681;53.254;10.398;2023-01-13T02:59:34;2.63;;;1.53;;
13230;SDS011;6681;53.254;10.398;2023-01-13T03:02:01;5.33;;;1.20;;
13230;SDS011;6681;53.254;10.398;2023-01-13T03:04:50;3.27;;;1.50;;
13230;SDS011;6681;53.254;10.398;2023-01-13T03:12:57;5.37;;;2.33;;
13230;SDS011;6681;53.254;10.398;2023-01-13T03:21:19;10.50;;;1.97;;
13230;SDS011;6681;53.254;10.398;2023-01-13T03:24:00;7.77;;;1.63;;
13230;SDS011;6681;53.254;10.398;2023-01-13T03:29:34;5.40;;;1.20;;
13230;SDS011;6681;53.254;10.398;2023-01-13T03:34:48;17.10;;;1.70;;
13230;SDS011;6681;53.254;10.398;2023-01-13T03:37:17;16.83;;;2.60;;
13230;SDS011;6681;53.254;10.398;2023-01-13T03:39:49;8.10;;;1.93;;
13230;SDS011;6681;53.254;10.398;2023-01-13T03:42:22;1.93;;;0.90;;
13230;SDS011;6681;53.254;10.398;2023-01-13T03:45:08;4.23;;;1.40;;
13230;SDS011;6681;53.254;10.398;2023-01-13T03:47:39;7.57;;;2.20;;
13230;SDS011;6681;53.254;10.398;2023-01-13T03:50:15;11.60;;;1.93;;
13230;SDS011;6681;53.254;10.398;2023-01-13T03:52:55;5.33;;;1.67;;
13230;SDS011;6681;53.254;10.398;2023-01-13T03:55:33;7.87;;;2.03;;
13230;SDS011;6681;53.254;10.398;2023-01-13T03:58:21;6.57;;;2.03;;
13230;SDS011;6681;53.254;10.398;2023-01-13T04:03:23;12.40;;;2.33;;
13230;SDS011;6681;53.254;10.398;2023-01-13T04:05:57;7.10;;;1.37;;
13230;SDS011;6681;53.254;10.398;2023-01-13T04:08:36;8.67;;;2.47;;
13230;SDS011;6681;53.254;10.398;2023-01-13T04:11:09;5.90;;;2.27;;
13230;SDS011;6681;53.254;10.398;2023-01-13T04:13:40;10.23;;;3.30;;
13230;SDS011;6681;53.254;10.398;2023-01-13T04:16:07;6.70;;;1.47;;
13230;SDS011;6681;53.254;10.398;2023-01-13T04:18:36;8.13;;;2.33;;
13230;SDS011;6681;53.254;10.398;2023-01-13T04:21:03;4.70;;;1.73;;
13230;SDS011;6681;53.254;10.398;2023-01-13T04:23:30;7.67;;;2.97;;
13230;SDS011;6681;53.254;10.398;2023-01-13T04:25:56;7.07;;;1.80;;
13230;SDS011;6681;53.254;10.398;2023-01-13T04:28:23;17.07;;;2.60;;
13230;SDS011;6681;53.254;10.398;2023-01-13T04:30:49;12.63;;;2.23;;
13230;SDS011;6681;53.254;10.398;2023-01-13T04:33:15;11.93;;;3.20;;
13230;SDS011;6681;53.254;10.398;2023-01-13T04:35:43;14.90;;;2.33;;
13230;SDS011;6681;53.254;10.398;2023-01-13T04:38:11;6.03;;;2.20;;
13230;SDS011;6681;53.254;10.398;2023-01-13T04:40:39;22.77;;;4.13;;
13230;SDS011;6681;53.254;10.398;2023-01-13T04:43:05;11.93;;;2.43;;
13230;SDS011;6681;53.254;10.398;2023-01-13T04:45:31;12.77;;;2.97;;
13230;SDS011;6681;53.254;10.398;2023-01-13T04:47:57;6.47;;;2.00;;
13230;SDS011;6681;53.254;10.398;2023-01-13T04:50:23;8.07;;;2.47;;
13230;SDS011;6681;53.254;10.398;2023-01-13T04:52:49;8.73;;;2.00;;
13230;SDS011;6681;53.254;10.398;2023-01-13T04:55:15;10.37;;;2.87;;
13230;SDS011;6681;53.254;10.398;2023-01-13T04:57:41;9.20;;;2.27;;
13230;SDS011;6681;53.254;10.398;2023-01-13T05:00:08;14.43;;;4.40;;
13230;SDS011;6681;53.254;10.398;2023-01-13T05:02:35;12.03;;;2.77;;
13230;SDS011;6681;53.254;10.398;2023-01-13T05:05:01;9.87;;;2.40;;
13230;SDS011;6681;53.254;10.398;2023-01-13T05:07:26;11.50;;;2.80;;
13230;SDS011;6681;53.254;10.398;2023-01-13T05:09:52;11.63;;;2.73;;
13230;SDS011;6681;53.254;10.398;2023-01-13T05:12:18;11.30;;;3.30;;
13230;SDS011;6681;53.254;10.398;2023-01-13T05:15:02;10.50;;;2.63;;
13230;SDS011;6681;53.254;10.398;2023-01-13T05:17:46;9.00;;;2.37;;
13230;SDS011;6681;53.254;10.398;2023-01-13T05:20:13;19.57;;;3.27;;
13230;SDS011;6681;53.254;10.398;2023-01-13T05:22:38;12.67;;;3.67;;
13230;SDS011;6681;53.254;10.398;2023-01-13T05:25:23;8.63;;;2.23;;
13230;SDS011;6681;53.254;10.398;2023-01-13T05:30:22;11.87;;;2.70;;
13230;SDS011;6681;53.254;10.398;2023-01-13T05:32:54;10.70;;;2.50;;
13230;SDS011;6681;53.254;10.398;2023-01-13T05:35:19;16.33;;;4.17;;
13230;SDS011;6681;53.254;10.398;2023-01-13T05:37:45;14.07;;;3.43;;
13230;SDS011;6681;53.254;10.398;2023-01-13T05:40:12;11.40;;;2.53;;
13230;SDS011;6681;53.254;10.398;2023-01-13T05:43:05;6.87;;;2.23;;
13230;SDS011;6681;53.254;10.398;2023-01-13T05:45:57;12.67;;;2.87;;
13230;SDS011;6681;53.254;10.398;2023-01-13T05:48:25;11.50;;;2.83;;
13230;SDS011;6681;53.254;10.398;2023-01-13T05:50:53;15.87;;;3.77;;
13230;SDS011;6681;53.254;10.398;2023-01-13T05:53:19;6.27;;;2.50;;
13230;SDS011;6681;53.254;10.398;2023-01-13T05:55:45;16.33;;;3.07;;
13230;SDS011;6681;53.254;10.398;2023-01-13T05:58:12;15.53;;;2.97;;
13230;SDS011;6681;53.254;10.398;2023-01-13T06:00:38;9.20;;;2.87;;
13230;SDS011;6681;53.254;10.398;2023-01-13T06:03:04;10.20;;;4.03;;
13230;SDS011;6681;53.254;10.398;2023-01-13T06:05:30;6.67;;;2.57;;
13230;SDS011;6681;53.254;10.398;2023-01-13T06:07:57;8.03;;;2.97;;
13230;SDS011;6681;53.254;10.398;2023-01-13T06:10:24;11.70;;;3.27;;
13230;SDS011;6681;53.254;10.398;2023-01-13T06:12:51;12.90;;;3.50;;
13230;SDS011;6681;53.254;10.398;2023-01-13T06:15:16;12.47;;;2.63;;
13230;SDS011;6681;53.254;10.398;2023-01-13T06:17:42;11.00;;;2.60;;
13230;SDS011;6681;53.254;10.398;2023-01-13T06:20:11;14.37;;;3.57;;
13230;SDS011;6681;53.254;10.398;2023-01-13T06:22:38;11.87;;;3.20;;
13230;SDS011;6681;53.254;10.398;2023-01-13T06:25:07;7.97;;;2.80;;
13230;SDS011;6681;53.254;10.398;2023-01-13T06:27:38;15.97;;;4.10;;
13230;SDS011;6681;53.254;10.398;2023-01-13T06:30:04;13.87;;;2.83;;
13230;SDS011;6681;53.254;10.398;2023-01-13T06:32:32;9.37;;;2.93;;
13230;SDS011;6681;53.254;10.398;2023-01-13T06:35:04;14.33;;;3.47;;
13230;SDS011;6681;53.254;10.398;2023-01-13T06:37:33;11.03;;;2.53;;
13230;SDS011;6681;53.254;10.398;2023-01-13T06:40:00;7.30;;;2.70;;
13230;SDS011;6681;53.254;10.398;2023-01-13T06:42:31;9.10;;;3.30;;
13230;SDS011;6681;53.254;10.398;2023-01-13T06:45:18;11.23;;;3.20;;
13230;SDS011;6681;53.254;10.398;2023-01-13T06:47:44;13.67;;;3.93;;
13230;SDS011;6681;53.254;10.398;2023-01-13T06:50:10;7.50;;;3.90;;
13230;SDS011;6681;53.254;10.398;2023-01-13T06:52:35;12.60;;;2.80;;
13230;SDS011;6681;53.254;10.398;2023-01-13T06:55:01;17.97;;;3.90;;
13230;SDS011;6681;53.254;10.398;2023-01-13T06:57:27;10.40;;;3.83;;
13230;SDS011;6681;53.254;10.398;2023-01-13T06:59:53;15.13;;;3.83;;
13230;SDS011;6681;53.254;10.398;2023-01-13T07:02:18;8.53;;;3.80;;
13230;SDS011;6681;53.254;10.398;2023-01-13T07:04:44;19.50;;;4.77;;
13230;SDS011;6681;53.254;10.398;2023-01-13T07:07:11;16.70;;;3.63;;
13230;SDS011;6681;53.254;10.398;2023-01-13T07:09:37;20.33;;;4.37;;
13230;SDS011;6681;53.254;10.398;2023-01-13T07:12:03;12.60;;;4.03;;
13230;SDS011;6681;53.254;10.398;2023-01-13T07:14:29;11.13;;;3.30;;
13230;SDS011;6681;53.254;10.398;2023-01-13T07:17:13;14.00;;;4.07;;
13230;SDS011;6681;53.254;10.398;2023-01-13T07:19:39;19.10;;;4.30;;
13230;SDS011;6681;53.254;10.398;2023-01-13T07:22:04;13.13;;;3.80;;
13230;SDS011;6681;53.254;10.398;2023-01-13T07:24:30;11.97;;;2.93;;
13230;SDS011;6681;53.254;10.398;2023-01-13T07:26:55;15.47;;;4.20;;
13230;SDS011;6681;53.254;10.398;2023-01-13T07:29:21;10.90;;;3.50;;
13230;SDS011;6681;53.254;10.398;2023-01-13T07:31:47;14.73;;;4.33;;
13230;SDS011;6681;53.254;10.398;2023-01-13T07:34:13;14.23;;;5.77;;
13230;SDS011;6681;53.254;10.398;2023-01-13T07:36:39;12.33;;;4.03;;
13230;SDS011;6681;53.254;10.398;2023-01-13T07:39:04;11.13;;;3.87;;
13230;SDS011;6681;53.254;10.398;2023-01-13T07:41:30;11.77;;;3.47;;
13230;SDS011;6681;53.254;10.398;2023-01-13T07:44:14;10.77;;;3.37;;
13230;SDS011;6681;53.254;10.398;2023-01-13T07:46:40;22.93;;;3.67;;
13230;SDS011;6681;53.254;10.398;2023-01-13T07:49:06;14.77;;;3.80;;
13230;SDS011;6681;53.254;10.398;2023-01-13T07:51:34;12.77;;;3.33;;
13230;SDS011;6681;53.254;10.398;2023-01-13T07:54:01;18.93;;;4.27;;
13230;SDS011;6681;53.254;10.398;2023-01-13T07:56:31;16.30;;;3.40;;
13230;SDS011;6681;53.254;10.398;2023-01-13T07:59:00;12.27;;;4.83;;
13230;SDS011;6681;53.254;10.398;2023-01-13T08:01:26;17.27;;;4.27;;
13230;SDS011;6681;53.254;10.398;2023-01-13T08:03:52;21.80;;;4.53;;
13230;SDS011;6681;53.254;10.398;2023-01-13T08:06:19;21.83;;;3.57;;
13230;SDS011;6681;53.254;10.398;2023-01-13T08:08:45;17.77;;;3.43;;
13230;SDS011;6681;53.254;10.398;2023-01-13T08:11:11;17.93;;;3.50;;
13230;SDS011;6681;53.254;10.398;2023-01-13T08:13:36;19.00;;;3.40;;
13230;SDS011;6681;53.254;10.398;2023-01-13T08:16:12;13.63;;;3.27;;
13230;SDS011;6681;53.254;10.398;2023-01-13T08:18:39;13.07;;;3.63;;
13230;SDS011;6681;53.254;10.398;2023-01-13T08:21:06;19.27;;;5.80;;
13230;SDS011;6681;53.254;10.398;2023-01-13T08:23:39;18.80;;;4.27;;
13230;SDS011;6681;53.254;10.398;2023-01-13T08:26:09;12.30;;;4.43;;
13230;SDS011;6681;53.254;10.398;2023-01-13T08:28:37;16.17;;;3.73;;
13230;SDS011;6681;53.254;10.398;2023-01-13T08:31:07;16.23;;;3.73;;
13230;SDS011;6681;53.254;10.398;2023-01-13T08:33:35;10.77;;;3.20;;
13230;SDS011;6681;53.254;10.398;2023-01-13T08:36:05;16.37;;;4.37;;
13230;SDS011;6681;53.254;10.398;2023-01-13T08:38:32;16.63;;;4.10;;
13230;SDS011;6681;53.254;10.398;2023-01-13T08:40:59;24.17;;;4.97;;
13230;SDS011;6681;53.254;10.398;2023-01-13T08:43:25;14.47;;;4.90;;
13230;SDS011;6681;53.254;10.398;2023-01-13T08:45:55;15.20;;;3.07;;
13230;SDS011;6681;53.254;10.398;2023-01-13T08:48:25;15.03;;;3.40;;
13230;SDS011;6681;53.254;10.398;2023-01-13T08:50:52;10.73;;;4.40;;
13230;SDS011;6681;53.254;10.398;2023-01-13T08:53:18;10.63;;;3.57;;
13230;SDS011;6681;53.254;10.398;2023-01-13T08:55:44;14.00;;;4.10;;
13230;SDS011;6681;53.254;10.398;2023-01-13T08:58:10;22.53;;;3.20;;
13230;SDS011;6681;53.254;10.398;2023-01-13T09:00:36;19.93;;;4.57;;
13230;SDS011;6681;53.254;10.398;2023-01-13T09:03:02;15.87;;;4.00;;
13230;SDS011;6681;53.254;10.398;2023-01-13T09:05:28;18.23;;;4.67;;
13230;SDS011;6681;53.254;10.398;2023-01-13T09:07:54;26.93;;;4.67;;
13230;SDS011;6681;53.254;10.398;2023-01-13T09:10:20;16.23;;;3.33;;
13230;SDS011;6681;53.254;10.398;2023-01-13T09:12:46;16.43;;;4.03;;
13230;SDS011;6681;53.254;10.398;2023-01-13T09:15:30;13.27;;;2.47;;
13230;SDS011;6681;53.254;10.398;2023-01-13T09:17:55;6.70;;;2.77;;
13230;SDS011;6681;53.254;10.398;2023-01-13T09:20:26;19.93;;;4.37;;
13230;SDS011;6681;53.254;10.398;2023-01-13T09:22:52;17.70;;;3.30;;
13230;SDS011;6681;53.254;10.398;2023-01-13T09:25:17;16.77;;;4.87;;
13230;SDS011;6681;53.254;10.398;2023-01-13T09:27:43;12.87;;;2.93;;
13230;SDS011;6681;53.254;10.398;2023-01-13T09:30:09;13.70;;;3.20;;
13230;SDS011;6681;53.254;10.398;2023-01-13T09:32:35;13.43;;;2.60;;
13230;SDS011;6681;53.254;10.398;2023-01-13T09:35:02;8.17;;;3.07;;
13230;SDS011;6681;53.254;10.398;2023-01-13T09:37:30;12.87;;;3.00;;
13230;SDS011;6681;53.254;10.398;2023-01-13T09:40:00;12.83;;;3.60;;
13230;SDS011;6681;53.254;10.398;2023-01-13T09:45:46;15.87;;;2.70;;
13230;SDS011;6681;53.254;10.398;2023-01-13T09:48:21;11.30;;;2.90;;
13230;SDS011;6681;53.254;10.398;2023-01-13T09:50:57;13.50;;;2.47;;
13230;SDS011;6681;53.254;10.398;2023-01-13T09:53:36;23.67;;;3.23;;
13230;SDS011;6681;53.254;10.398;2023-01-13T09:56:04;11.80;;;2.83;;
13230;SDS011;6681;53.254;10.398;2023-01-13T09:58:31;8.70;;;2.23;;
13230;SDS011;6681;53.254;10.398;2023-01-13T10:03:31;8.70;;;2.53;;
13230;SDS011;6681;53.254;10.398;2023-01-13T10:08:29;9.27;;;1.53;;
13230;SDS011;6681;53.254;10.398;2023-01-13T10:14:19;6.33;;;2.63;;
13230;SDS011;6681;53.254;10.398;2023-01-13T10:17:14;10.63;;;3.07;;
13230;SDS011;6681;53.254;10.398;2023-01-13T10:28:29;11.73;;;2.83;;
13230;SDS011;6681;53.254;10.398;2023-01-13T10:30:54;14.20;;;2.27;;
13230;SDS011;6681;53.254;10.398;2023-01-13T10:33:24;13.07;;;2.03;;
13230;SDS011;6681;53.254;10.398;2023-01-13T10:41:01;7.00;;;1.77;;
13230;SDS011;6681;53.254;10.398;2023-01-13T10:43:29;7.87;;;3.13;;
13230;SDS011;6681;53.254;10.398;2023-01-13T10:45:57;10.43;;;1.77;;
13230;SDS011;6681;53.254;10.398;2023-01-13T10:56:37;6.53;;;3.23;;
13230;SDS011;6681;53.254;10.398;2023-01-13T10:59:16;10.40;;;1.70;;
13230;SDS011;6681;53.254;10.398;2023-01-13T11:01:58;16.73;;;2.73;;
13230;SDS011;6681;53.254;10.398;2023-01-13T11:04:39;7.70;;;1.70;;
13230;SDS011;6681;53.254;10.398;2023-01-13T11:07:39;8.63;;;2.17;;
13230;SDS011;6681;53.254;10.398;2023-01-13T11:18:45;11.77;;;2.57;;
13230;SDS011;6681;53.254;10.398;2023-01-13T11:24:36;6.93;;;2.77;;
13230;SDS011;6681;53.254;10.398;2023-01-13T11:32:36;4.43;;;2.20;;
13230;SDS011;6681;53.254;10.398;2023-01-13T11:35:17;13.30;;;2.47;;
13230;SDS011;6681;53.254;10.398;2023-01-13T11:37:46;7.87;;;2.53;;
13230;SDS011;6681;53.254;10.398;2023-01-13T11:45:56;7.67;;;2.50;;
13230;SDS011;6681;53.254;10.398;2023-01-13T11:48:27;10.07;;;2.10;;
13230;SDS011;6681;53.254;10.398;2023-01-13T11:51:03;16.23;;;2.60;;
13230;SDS011;6681;53.254;10.398;2023-01-13T11:53:42;19.77;;;2.87;;
13230;SDS011;6681;53.254;10.398;2023-01-13T12:05:10;5.87;;;1.97;;
13230;SDS011;6681;53.254;10.398;2023-01-13T12:08:08;9.63;;;1.60;;
13230;SDS011;6681;53.254;10.398;2023-01-13T12:13:32;11.20;;;2.33;;
13230;SDS011;6681;53.254;10.398;2023-01-13T12:16:25;14.07;;;2.60;;
13230;SDS011;6681;53.254;10.398;2023-01-13T12:21:39;13.80;;;2.33;;
13230;SDS011;6681;53.254;10.398;2023-01-13T12:26:48;6.23;;;1.70;;
13230;SDS011;6681;53.254;10.398;2023-01-13T12:29:28;7.93;;;1.87;;
13230;SDS011;6681;53.254;10.398;2023-01-13T12:31:56;8.53;;;1.73;;
13230;SDS011;6681;53.254;10.398;2023-01-13T12:34:41;9.77;;;2.23;;
13230;SDS011;6681;53.254;10.398;2023-01-13T12:47:35;9.97;;;2.47;;
13230;SDS011;6681;53.254;10.398;2023-01-13T12:50:34;13.60;;;3.37;;
13230;SDS011;6681;53.254;10.398;2023-01-13T12:59:49;9.20;;;3.00;;
13230;SDS011;6681;53.254;10.398;2023-01-13T13:01:46;8.73;;;2.00;;
13230;SDS011;6681;53.254;10.398;2023-01-13T13:04:17;8.87;;;1.67;;
13230;SDS011;6681;53.254;10.398;2023-01-13T13:06:52;13.10;;;2.73;;
13230;SDS011;6681;53.254;10.398;2023-01-13T13:09:29;11.60;;;2.37;;
13230;SDS011;6681;53.254;10.398;2023-01-13T13:11:58;11.50;;;2.33;;
13230;SDS011;6681;53.254;10.398;2023-01-13T13:15:33;4.77;;;1.37;;
13230;SDS011;6681;53.254;10.398;2023-01-13T13:18:22;8.47;;;2.40;;
13230;SDS011;6681;53.254;10.398;2023-01-13T13:21:04;12.93;;;2.37;;
13230;SDS011;6681;53.254;10.398;2023-01-13T13:26:39;8.10;;;1.80;;
13230;SDS011;6681;53.254;10.398;2023-01-13T13:40:38;5.97;;;2.00;;
13230;SDS011;6681;53.254;10.398;2023-01-13T13:43:25;9.40;;;2.50;;
13230;SDS011;6681;53.254;10.398;2023-01-13T13:51:42;3.20;;;1.80;;
13230;SDS011;6681;53.254;10.398;2023-01-13T13:54:10;11.47;;;2.87;;
13230;SDS011;6681;53.254;10.398;2023-01-13T13:56:42;4.27;;;2.80;;
13230;SDS011;6681;53.254;10.398;2023-01-13T13:59:10;11.07;;;2.47;;
13230;SDS011;6681;53.254;10.398;2023-01-13T14:01:40;7.90;;;2.70;;
13230;SDS011;6681;53.254;10.398;2023-01-13T14:04:19;10.07;;;2.60;;
13230;SDS011;6681;53.254;10.398;2023-01-13T14:09:20;13.43;;;2.73;;
13230;SDS011;6681;53.254;10.398;2023-01-13T14:14:21;6.87;;;1.83;;
13230;SDS011;6681;53.254;10.398;2023-01-13T14:16:47;6.23;;;2.17;;
13230;SDS011;6681;53.254;10.398;2023-01-13T14:19:32;9.93;;;2.07;;
13230;SDS011;6681;53.254;10.398;2023-01-13T14:22:00;9.57;;;2.67;;
13230;SDS011;6681;53.254;10.398;2023-01-13T14:24:27;10.97;;;2.00;;
13230;SDS011;6681;53.254;10.398;2023-01-13T14:27:07;13.27;;;2.77;;
13230;SDS011;6681;53.254;10.398;2023-01-13T14:29:35;10.23;;;3.20;;
13230;SDS011;6681;53.254;10.398;2023-01-13T14:32:01;6.10;;;1.47;;
13230;SDS011;6681;53.254;10.398;2023-01-13T14:34:29;9.87;;;2.43;;
13230;SDS011;6681;53.254;10.398;2023-01-13T14:36:56;9.37;;;2.27;;
13230;SDS011;6681;53.254;10.398;2023-01-13T14:39:23;4.73;;;2.47;;
13230;SDS011;6681;53.254;10.398;2023-01-13T14:41:55;3.83;;;2.07;;
13230;SDS011;6681;53.254;10.398;2023-01-13T14:44:32;7.27;;;2.57;;
13230;SDS011;6681;53.254;10.398;2023-01-13T14:50:05;8.73;;;1.70;;
13230;SDS011;6681;53.254;10.398;2023-01-13T14:52:34;5.90;;;2.10;;
13230;SDS011;6681;53.254;10.398;2023-01-13T14:55:10;8.87;;;1.83;;
13230;SDS011;6681;53.254;10.398;2023-01-13T14:57:41;6.47;;;1.60;;
13230;SDS011;6681;53.254;10.398;2023-01-13T15:10:20;14.33;;;2.17;;
13230;SDS011;6681;53.254;10.398;2023-01-13T15:12:49;6.03;;;2.10;;
13230;SDS011;6681;53.254;10.398;2023-01-13T15:17:47;7.17;;;1.90;;
13230;SDS011;6681;53.254;10.398;2023-01-13T15:20:13;5.40;;;2.70;;
13230;SDS011;6681;53.254;10.398;2023-01-13T15:22:40;12.83;;;2.67;;
13230;SDS011;6681;53.254;10.398;2023-01-13T15:25:05;14.70;;;2.10;;
13230;SDS011;6681;53.254;10.398;2023-01-13T15:27:33;5.00;;;1.83;;
13230;SDS011;6681;53.254;10.398;2023-01-13T15:30:00;8.23;;;1.67;;
13230;SDS011;6681;53.254;10.398;2023-01-13T15:32:27;3.73;;;1.40;;
13230;SDS011;6681;53.254;10.398;2023-01-13T15:34:53;4.63;;;1.77;;
13230;SDS011;6681;53.254;10.398;2023-01-13T15:37:18;3.93;;;1.60;;
13230;SDS011;6681;53.254;10.398;2023-01-13T15:39:44;9.07;;;2.40;;
13230;SDS011;6681;53.254;10.398;2023-01-13T15:42:11;12.63;;;2.20;;
13230;SDS011;6681;53.254;10.398;2023-01-13T15:44:59;6.40;;;2.20;;
13230;SDS011;6681;53.254;10.398;2023-01-13T15:47:43;7.70;;;2.43;;
13230;SDS011;6681;53.254;10.398;2023-01-13T15:50:13;4.17;;;1.33;;
13230;SDS011;6681;53.254;10.398;2023-01-13T15:52:42;11.63;;;2.13;;
13230;SDS011;6681;53.254;10.398;2023-01-13T15:55:08;10.10;;;2.07;;
13230;SDS011;6681;53.254;10.398;2023-01-13T15:57:35;2.53;;;1.37;;
13230;SDS011;6681;53.254;10.398;2023-01-13T16:00:04;4.77;;;2.20;;
13230;SDS011;6681;53.254;10.398;2023-01-13T16:02:37;5.17;;;1.37;;
13230;SDS011;6681;53.254;10.398;2023-01-13T16:05:03;9.27;;;1.77;;
13230;SDS011;6681;53.254;10.398;2023-01-13T16:07:30;8.47;;;2.03;;
13230;SDS011;6681;53.254;10.398;2023-01-13T16:09:55;6.30;;;1.93;;
13230;SDS011;6681;53.254;10.398;2023-01-13T16:12:21;6.27;;;2.00;;
13230;SDS011;6681;53.254;10.398;2023-01-13T16:14:47;7.57;;;2.00;;
13230;SDS011;6681;53.254;10.398;2023-01-13T16:17:14;4.67;;;2.50;;
13230;SDS011;6681;53.254;10.398;2023-01-13T16:19:40;7.97;;;1.70;;
13230;SDS011;6681;53.254;10.398;2023-01-13T16:22:07;11.07;;;1.93;;
13230;SDS011;6681;53.254;10.398;2023-01-13T16:24:37;6.13;;;2.37;;
13230;SDS011;6681;53.254;10.398;2023-01-13T16:27:10;4.90;;;1.47;;
13230;SDS011;6681;53.254;10.398;2023-01-13T16:29:36;12.00;;;2.30;;
13230;SDS011;6681;53.254;10.398;2023-01-13T16:32:02;5.77;;;2.00;;
13230;SDS011;6681;53.254;10.398;2023-01-13T16:34:28;7.77;;;1.80;;
13230;SDS011;6681;53.254;10.398;2023-01-13T16:36:53;10.87;;;2.80;;
13230;SDS011;6681;53.254;10.398;2023-01-13T16:39:20;5.13;;;1.70;;
13230;SDS011;6681;53.254;10.398;2023-01-13T16:41:46;11.23;;;1.83;;
13230;SDS011;6681;53.254;10.398;2023-01-13T16:44:12;6.23;;;1.33;;
13230;SDS011;6681;53.254;10.398;2023-01-13T16:46:38;6.77;;;2.03;;
13230;SDS011;6681;53.254;10.398;2023-01-13T16:49:04;13.20;;;2.30;;
13230;SDS011;6681;53.254;10.398;2023-01-13T16:51:30;5.93;;;1.47;;
13230;SDS011;6681;53.254;10.398;2023-01-13T16:53:56;3.70;;;1.30;;
13230;SDS011;6681;53.254;10.398;2023-01-13T16:56:23;6.60;;;2.00;;
13230;SDS011;6681;53.254;10.398;2023-01-13T16:59:05;9.77;;;1.77;;
13230;SDS011;6681;53.254;10.398;2023-01-13T17:01:34;9.37;;;1.57;;
13230;SDS011;6681;53.254;10.398;2023-01-13T17:04:20;4.83;;;1.30;;
13230;SDS011;6681;53.254;10.398;2023-01-13T17:09:17;8.93;;;2.20;;
13230;SDS011;6681;53.254;10.398;2023-01-13T17:11:44;2.23;;;1.43;;
13230;SDS011;6681;53.254;10.398;2023-01-13T17:14:11;6.50;;;2.40;;
13230;SDS011;6681;53.254;10.398;2023-01-13T17:16:36;11.07;;;1.80;;
13230;SDS011;6681;53.254;10.398;2023-01-13T17:19:02;5.63;;;2.10;;
13230;SDS011;6681;53.254;10.398;2023-01-13T17:21:28;6.93;;;1.60;;
13230;SDS011;6681;53.254;10.398;2023-01-13T17:23:53;7.77;;;0.93;;
13230;SDS011;6681;53.254;10.398;2023-01-13T17:26:30;9.83;;;1.27;;
13230;SDS011;6681;53.254;10.398;2023-01-13T17:29:00;3.70;;;1.50;;
13230;SDS011;6681;53.254;10.398;2023-01-13T17:31:28;4.50;;;1.20;;
13230;SDS011;6681;53.254;10.398;2023-01-13T17:33:54;4.20;;;1.07;;
13230;SDS011;6681;53.254;10.398;2023-01-13T17:36:20;4.87;;;1.47;;
13230;SDS011;6681;53.254;10.398;2023-01-13T17:38:45;3.00;;;1.33;;
13230;SDS011;6681;53.254;10.398;2023-01-13T17:41:11;3.07;;;1.40;;
13230;SDS011;6681;53.254;10.398;2023-01-13T17:43:37;7.43;;;1.57;;
13230;SDS011;6681;53.254;10.398;2023-01-13T17:46:06;4.57;;;1.43;;
13230;SDS011;6681;53.254;10.398;2023-01-13T17:48:32;9.03;;;2.40;;
13230;SDS011;6681;53.254;10.398;2023-01-13T17:50:58;2.73;;;1.60;;